Horizon — WDF5156 — position and weather

sailwx.info

Track history (hours):
 
Tides and Currents Weather Stations Pressure Air Temp Water Temp Dewpoint Dewpoint Depression Visibility Wind Speed Wind Dir Waves Ship Positions

Horizon

Owner: ACA MARINE CORP, MAYFIELD HEIGHTS, OH. More information available from US FCC via Universal Licensing System and Coast Guard Vessel Documentation Center.

Last reported at 2016-Mar-20 19:14 UTC. Time now 2016-Apr-29 21:41 UTC.
Position N 26°52' W 080°02'.
Warning: this ship's position is 40 days out of date.

Length 42 m; draft 2.5 m.

Type: Pleasure craft. MMSI: 367460010.

Date/timePositionNaut miles runAvg speedWind from/ knotsBaromVisibWave heightAir tempDewpointWater temp
2016-Mar-20 19:14N 26°52' W 080°02'30 0.6
2016-Mar-18 15:33N 26°22' W 080°01'1717.4
2016-Mar-18 14:33N 26°06' W 080°07'2 1.7
2016-Mar-18 13:33N 26°07' W 080°07'0 0.0
2016-Mar-18 12:33N 26°07' W 080°07'0 0.0
2016-Mar-18 11:33N 26°07' W 080°07'0 0.0
2016-Mar-18 10:33N 26°07' W 080°07'0 0.0
2016-Mar-18 09:33N 26°07' W 080°07'0 0.0
2016-Mar-18 08:33N 26°07' W 080°07'0 0.0
2016-Mar-18 07:33N 26°07' W 080°07'0 0.0
2016-Mar-18 06:33N 26°07' W 080°07'0 0.0
2016-Mar-18 05:34N 26°07' W 080°07'0 0.0
2016-Mar-18 04:33N 26°07' W 080°07'0 0.0
2016-Mar-18 03:33N 26°07' W 080°07'0 0.0
2016-Mar-18 02:33N 26°07' W 080°07'0 0.0
2016-Mar-18 01:33N 26°07' W 080°07'0 0.0
2016-Mar-18 00:33N 26°07' W 080°07'0 0.0
2016-Mar-17 23:33N 26°07' W 080°07'0 0.0
2016-Mar-17 22:33N 26°07' W 080°07'0 0.0
2016-Mar-17 21:33N 26°07' W 080°07'0 0.0
2016-Mar-17 20:33N 26°07' W 080°07'0 0.0
2016-Mar-17 19:33N 26°07' W 080°07'0 0.0
2016-Mar-17 18:33N 26°07' W 080°07'0 0.0
2016-Mar-17 17:33N 26°07' W 080°07'0 0.0
2016-Mar-17 16:33N 26°07' W 080°07'0 0.0
2016-Mar-17 15:33N 26°07' W 080°07'0 0.0
2016-Mar-17 14:33N 26°07' W 080°07'0 0.0
2016-Mar-17 13:33N 26°07' W 080°07'0 0.0
2016-Mar-17 12:33N 26°07' W 080°07'0 0.0
2016-Mar-17 11:33N 26°07' W 080°07'0 0.0
2016-Mar-17 10:33N 26°07' W 080°07'0 0.0
2016-Mar-17 09:33N 26°07' W 080°07'0 0.0
2016-Mar-17 08:33N 26°07' W 080°07'0 0.0
2016-Mar-17 07:33N 26°07' W 080°07'0 0.0
2016-Mar-17 06:33N 26°07' W 080°07'0 0.0
2016-Mar-17 05:33N 26°07' W 080°07'0 0.0
2016-Mar-17 04:33N 26°07' W 080°07'0 0.0
2016-Mar-17 03:33N 26°07' W 080°07'0 0.0
2016-Mar-17 02:33N 26°07' W 080°07'0 0.0
2016-Mar-17 01:33N 26°07' W 080°07'1 1.3
2016-Mar-17 00:33N 26°09' W 080°06'3 3.3
2016-Mar-16 23:33N 26°05' W 080°07'2 2.1
2016-Mar-16 22:33N 26°07' W 080°07'0 0.0
2016-Mar-16 21:33N 26°07' W 080°07'0 0.0
2016-Mar-16 20:33N 26°07' W 080°07'0 0.0
2016-Mar-16 19:33N 26°07' W 080°07'0 0.0
2016-Mar-16 18:33N 26°07' W 080°07'0 0.0
2016-Mar-16 17:33N 26°07' W 080°07'0 0.0
2016-Mar-16 16:33N 26°07' W 080°07'0 0.0
2016-Mar-16 15:33N 26°07' W 080°07'0 0.0
2016-Mar-16 14:33N 26°07' W 080°07'0 0.0
2016-Mar-16 13:33N 26°07' W 080°07'0 0.0
2016-Mar-16 12:33N 26°07' W 080°07'0 0.0
2016-Mar-16 11:33N 26°07' W 080°07'0 0.0
2016-Mar-16 10:33N 26°07' W 080°07'0 0.0
2016-Mar-16 09:33N 26°07' W 080°07'0 0.0
2016-Mar-16 08:33N 26°07' W 080°07'0 0.0
2016-Mar-16 07:33N 26°07' W 080°07'0 0.0
2016-Mar-16 06:33N 26°07' W 080°07'0 0.0
2016-Mar-16 05:33N 26°07' W 080°07'0 0.0
2016-Mar-16 04:33N 26°07' W 080°07'0 0.0
2016-Mar-16 03:33N 26°07' W 080°07'0 0.0
2016-Mar-16 02:33N 26°07' W 080°07'0 0.0
2016-Mar-16 01:33N 26°07' W 080°07'0 0.0
2016-Mar-16 00:33N 26°07' W 080°07'0 0.0
2016-Mar-15 23:33N 26°07' W 080°07'0 0.0
2016-Mar-15 22:33N 26°07' W 080°07'0 0.0
2016-Mar-15 21:33N 26°07' W 080°07'0 0.0
2016-Mar-15 20:15N 26°07' W 080°07'0 0.0
2016-Mar-15 19:33N 26°07' W 080°07'0 0.0
2016-Mar-15 18:33N 26°07' W 080°07'0 0.0
2016-Mar-15 17:33N 26°07' W 080°07'0 0.0
2016-Mar-15 16:33N 26°07' W 080°07'0 0.0
2016-Mar-15 15:33N 26°07' W 080°07'2 1.7
2016-Mar-15 14:33N 26°06' W 080°07'1817.9
2016-Mar-15 13:33N 26°23' W 080°02'29 0.7
2016-Mar-13 20:21N 26°52' W 080°02'3 3.8
2016-Mar-13 19:33N 26°55' W 080°03'  
Track history (hours):
 
Tides and Currents Weather Stations Pressure Air Temp Water Temp Dewpoint Dewpoint Depression Visibility Wind Speed Wind Dir Waves Ship Positions

Horizon

Owner: ACA MARINE CORP, MAYFIELD HEIGHTS, OH. More information available from US FCC via Universal Licensing System and Coast Guard Vessel Documentation Center.

Last reported at 2016-Mar-20 19:14 UTC. Time now 2016-Apr-29 21:41 UTC.
Position N 26°52' W 080°02'.
Warning: this ship's position is 40 days out of date.

Length 42 m; draft 2.5 m.

Type: Pleasure craft. MMSI: 367460010.

Date/timePositionNaut miles runAvg speedWind from/ knotsBaromVisibWave heightAir tempDewpointWater temp
2016-Mar-20 19:14N 26°52' W 080°02'30 0.6
2016-Mar-18 15:33N 26°22' W 080°01'1717.4
2016-Mar-18 14:33N 26°06' W 080°07'2 1.7
2016-Mar-18 13:33N 26°07' W 080°07'0 0.0
2016-Mar-18 12:33N 26°07' W 080°07'0 0.0
2016-Mar-18 11:33N 26°07' W 080°07'0 0.0
2016-Mar-18 10:33N 26°07' W 080°07'0 0.0
2016-Mar-18 09:33N 26°07' W 080°07'0 0.0
2016-Mar-18 08:33N 26°07' W 080°07'0 0.0
2016-Mar-18 07:33N 26°07' W 080°07'0 0.0
2016-Mar-18 06:33N 26°07' W 080°07'0 0.0
2016-Mar-18 05:34N 26°07' W 080°07'0 0.0
2016-Mar-18 04:33N 26°07' W 080°07'0 0.0
2016-Mar-18 03:33N 26°07' W 080°07'0 0.0
2016-Mar-18 02:33N 26°07' W 080°07'0 0.0
2016-Mar-18 01:33N 26°07' W 080°07'0 0.0
2016-Mar-18 00:33N 26°07' W 080°07'0 0.0
2016-Mar-17 23:33N 26°07' W 080°07'0 0.0
2016-Mar-17 22:33N 26°07' W 080°07'0 0.0
2016-Mar-17 21:33N 26°07' W 080°07'0 0.0
2016-Mar-17 20:33N 26°07' W 080°07'0 0.0
2016-Mar-17 19:33N 26°07' W 080°07'0 0.0
2016-Mar-17 18:33N 26°07' W 080°07'0 0.0
2016-Mar-17 17:33N 26°07' W 080°07'0 0.0
2016-Mar-17 16:33N 26°07' W 080°07'0 0.0
2016-Mar-17 15:33N 26°07' W 080°07'0 0.0
2016-Mar-17 14:33N 26°07' W 080°07'0 0.0
2016-Mar-17 13:33N 26°07' W 080°07'0 0.0
2016-Mar-17 12:33N 26°07' W 080°07'0 0.0
2016-Mar-17 11:33N 26°07' W 080°07'0 0.0
2016-Mar-17 10:33N 26°07' W 080°07'0 0.0
2016-Mar-17 09:33N 26°07' W 080°07'0 0.0
2016-Mar-17 08:33N 26°07' W 080°07'0 0.0
2016-Mar-17 07:33N 26°07' W 080°07'0 0.0
2016-Mar-17 06:33N 26°07' W 080°07'0 0.0
2016-Mar-17 05:33N 26°07' W 080°07'0 0.0
2016-Mar-17 04:33N 26°07' W 080°07'0 0.0
2016-Mar-17 03:33N 26°07' W 080°07'0 0.0
2016-Mar-17 02:33N 26°07' W 080°07'0 0.0
2016-Mar-17 01:33N 26°07' W 080°07'1 1.3
2016-Mar-17 00:33N 26°09' W 080°06'3 3.3
2016-Mar-16 23:33N 26°05' W 080°07'2 2.1
2016-Mar-16 22:33N 26°07' W 080°07'0 0.0
2016-Mar-16 21:33N 26°07' W 080°07'0 0.0
2016-Mar-16 20:33N 26°07' W 080°07'0 0.0
2016-Mar-16 19:33N 26°07' W 080°07'0 0.0
2016-Mar-16 18:33N 26°07' W 080°07'0 0.0
2016-Mar-16 17:33N 26°07' W 080°07'0 0.0
2016-Mar-16 16:33N 26°07' W 080°07'0 0.0
2016-Mar-16 15:33N 26°07' W 080°07'0 0.0
2016-Mar-16 14:33N 26°07' W 080°07'0 0.0
2016-Mar-16 13:33N 26°07' W 080°07'0 0.0
2016-Mar-16 12:33N 26°07' W 080°07'0 0.0
2016-Mar-16 11:33N 26°07' W 080°07'0 0.0
2016-Mar-16 10:33N 26°07' W 080°07'0 0.0
2016-Mar-16 09:33N 26°07' W 080°07'0 0.0
2016-Mar-16 08:33N 26°07' W 080°07'0 0.0
2016-Mar-16 07:33N 26°07' W 080°07'0 0.0
2016-Mar-16 06:33N 26°07' W 080°07'0 0.0
2016-Mar-16 05:33N 26°07' W 080°07'0 0.0
2016-Mar-16 04:33N 26°07' W 080°07'0 0.0
2016-Mar-16 03:33N 26°07' W 080°07'0 0.0
2016-Mar-16 02:33N 26°07' W 080°07'0 0.0
2016-Mar-16 01:33N 26°07' W 080°07'0 0.0
2016-Mar-16 00:33N 26°07' W 080°07'0 0.0
2016-Mar-15 23:33N 26°07' W 080°07'0 0.0
2016-Mar-15 22:33N 26°07' W 080°07'0 0.0
2016-Mar-15 21:33N 26°07' W 080°07'0 0.0
2016-Mar-15 20:15N 26°07' W 080°07'0 0.0
2016-Mar-15 19:33N 26°07' W 080°07'0 0.0
2016-Mar-15 18:33N 26°07' W 080°07'0 0.0
2016-Mar-15 17:33N 26°07' W 080°07'0 0.0
2016-Mar-15 16:33N 26°07' W 080°07'0 0.0
2016-Mar-15 15:33N 26°07' W 080°07'2 1.7
2016-Mar-15 14:33N 26°06' W 080°07'1817.9
2016-Mar-15 13:33N 26°23' W 080°02'29 0.7
2016-Mar-13 20:21N 26°52' W 080°02'3 3.8
2016-Mar-13 19:33N 26°55' W 080°03'  

Dump ship's entire track history